Maple Falls, Washington
Current Conditions -  °F | °C
As of 4:00 AM on Thursday 23 Oct 2014 (Local Time) from CYXX Reporting Station
Overcast Overcast  
Wind Chill: 50°   Ceiling: 5000
Heat Index: 50°   Visibility: 15mi
Dew Point: 50°   Wind: 2mph
Humidity: 100%   Direction: 230°SW
Pressure: 29.7"   Gusts: NA
Location:  48.92°N, 122.08°W
Report Text: CYXX 231100Z 23002KT 15SM FEW030 BKN050 OVC070 10/10 A2970 RMK SC1SC6AC1 SLP058
Loading
Personal Weather Stations






























Interactive Weather Map
Tropical Storm Tracking
New forecast layout! Learn more

10-Day Weather Forecast

Advertisements
Track Severe Weather on mobile